Time;durP1;ratioP1;P1;durP2;ratioP2;P2;SDS_P1;SDS_P2;PMS_P1;PMS_P2;Temp;Humidity;BMP_temperature;BMP_pressure;BME280_temperature;BME280_humidity;BME280_pressure;Samples;Min_cycle;Max_cycle;Signal;HPM_P1;HPM_P2
2021/09/24 00:00:20;;;;;;;1.07;0.93;;;18.10;99.90;;;;;;5005347;28;20642;-73
2021/09/24 00:02:45;;;;;;;1.10;0.70;;;18.20;99.90;;;;;;4995745;28;20443;-73
2021/09/24 00:05:11;;;;;;;1.07;0.80;;;18.20;99.90;;;;;;5007253;28;20255;-73
2021/09/24 00:07:37;;;;;;;1.40;0.77;;;18.30;99.90;;;;;;4998301;28;20187;-74
2021/09/24 00:10:04;;;;;;;0.90;0.60;;;18.30;99.90;;;;;;5005961;28;20176;-75
2021/09/24 00:12:30;;;;;;;0.97;0.80;;;18.30;99.90;;;;;;5010981;28;20286;-74
2021/09/24 00:14:55;;;;;;;1.17;0.60;;;18.30;99.90;;;;;;5011152;28;20534;-75
2021/09/24 00:17:21;;;;;;;1.97;1.00;;;18.30;99.90;;;;;;5000485;28;20179;-74
2021/09/24 00:19:46;;;;;;;0.80;0.70;;;18.30;99.90;;;;;;5011142;28;20274;-73
2021/09/24 00:22:12;;;;;;;0.80;0.60;;;18.20;99.90;;;;;;5005703;28;21666;-75
2021/09/24 00:24:37;;;;;;;1.20;1.10;;;18.30;99.90;;;;;;5009761;28;20208;-75
2021/09/24 00:27:05;;;;;;;1.20;0.90;;;18.20;99.90;;;;;;5009977;28;20177;-73
2021/09/24 00:29:31;;;;;;;0.80;0.80;;;18.30;99.90;;;;;;4992594;28;20173;-73
2021/09/24 00:31:56;;;;;;;1.43;1.33;;;18.20;99.90;;;;;;5003065;28;20508;-73
2021/09/24 00:34:22;;;;;;;0.70;0.50;;;18.10;99.90;;;;;;5009953;28;20195;-74
2021/09/24 00:36:47;;;;;;;2.40;2.30;;;18.10;99.90;;;;;;4994052;28;20180;-74
2021/09/24 00:39:13;;;;;;;2.50;1.10;;;18.20;99.90;;;;;;5002414;28;20198;-74
2021/09/24 00:41:38;;;;;;;0.93;0.90;;;18.20;99.90;;;;;;4998558;28;20201;-74
2021/09/24 00:44:05;;;;;;;0.70;0.60;;;18.30;99.90;;;;;;4992813;28;20169;-74
2021/09/24 00:46:30;;;;;;;1.53;1.43;;;18.30;99.90;;;;;;5003707;28;20243;-74
2021/09/24 00:48:56;;;;;;;1.80;1.13;;;18.20;99.90;;;;;;4998863;28;20467;-73
2021/09/24 00:51:22;;;;;;;0.80;0.70;;;18.30;99.90;;;;;;5000844;28;20200;-75
2021/09/24 00:53:48;;;;;;;0.70;0.60;;;18.30;99.90;;;;;;5010783;28;20242;-73
2021/09/24 00:56:13;;;;;;;0.93;0.67;;;18.30;99.90;;;;;;4996131;28;20426;-73
2021/09/24 00:58:39;;;;;;;1.80;1.00;;;18.30;99.90;;;;;;5009804;28;20203;-74
2021/09/24 01:01:04;;;;;;;1.17;0.83;;;18.30;99.90;;;;;;5013416;28;20283;-74
2021/09/24 01:03:30;;;;;;;1.30;1.20;;;18.20;99.90;;;;;;5014438;28;20545;-73
2021/09/24 01:05:56;;;;;;;1.20;1.10;;;18.20;99.90;;;;;;5004761;28;20694;-73
2021/09/24 01:08:21;;;;;;;0.80;0.60;;;18.20;99.90;;;;;;5013691;28;20173;-74
2021/09/24 01:10:48;;;;;;;1.67;1.00;;;18.30;99.90;;;;;;5005644;28;20215;-73
2021/09/24 01:13:14;;;;;;;1.70;1.17;;;18.30;99.90;;;;;;5012194;28;20522;-74
2021/09/24 01:15:40;;;;;;;1.83;1.00;;;18.30;99.90;;;;;;5012878;28;20457;-73
2021/09/24 01:18:05;;;;;;;1.30;0.70;;;18.30;99.90;;;;;;5011132;28;20439;-73
2021/09/24 01:20:31;;;;;;;2.40;1.20;;;18.20;99.90;;;;;;5002844;28;20176;-74
2021/09/24 01:22:57;;;;;;;0.80;0.70;;;18.20;99.90;;;;;;5013659;28;20208;-75
2021/09/24 01:25:23;;;;;;;0.80;0.70;;;18.20;99.90;;;;;;5001421;28;20207;-74
2021/09/24 01:27:51;;;;;;;1.00;0.83;;;18.20;99.90;;;;;;5009689;28;20478;-74
2021/09/24 01:30:17;;;;;;;1.87;1.77;;;18.10;99.90;;;;;;4995527;28;20416;-73
2021/09/24 01:32:44;;;;;;;0.93;0.80;;;18.10;99.90;;;;;;5002055;28;20537;-74
2021/09/24 01:35:10;;;;;;;1.10;0.80;;;18.10;99.90;;;;;;5012106;28;20441;-74
2021/09/24 01:37:36;;;;;;;1.70;1.60;;;18.10;99.90;;;;;;5013944;28;20846;-74
2021/09/24 01:40:03;;;;;;;1.40;1.30;;;18.10;99.90;;;;;;5011471;28;21010;-73
2021/09/24 01:42:28;;;;;;;1.07;0.97;;;18.10;99.90;;;;;;5005695;28;20435;-76
2021/09/24 01:44:54;;;;;;;1.53;0.80;;;18.10;99.90;;;;;;5009431;28;20461;-73
2021/09/24 01:47:20;;;;;;;1.67;0.90;;;17.90;99.90;;;;;;5000760;28;20698;-74
2021/09/24 01:49:45;;;;;;;1.13;1.03;;;17.90;99.90;;;;;;4998617;28;20639;-73
2021/09/24 01:52:11;;;;;;;0.80;0.60;;;17.90;99.90;;;;;;5003933;28;20192;-74
2021/09/24 01:54:37;;;;;;;1.77;1.33;;;17.90;99.90;;;;;;5004530;28;20288;-73
2021/09/24 01:57:03;;;;;;;0.83;0.63;;;17.90;99.90;;;;;;5010581;28;20188;-75
2021/09/24 01:59:28;;;;;;;1.37;0.73;;;18.00;99.90;;;;;;5011233;28;20184;-74
2021/09/24 02:01:54;;;;;;;0.80;0.70;;;17.90;99.90;;;;;;5008418;28;20448;-73
2021/09/24 02:04:19;;;;;;;1.13;1.03;;;17.90;99.90;;;;;;5024006;28;20180;-73
2021/09/24 02:06:45;;;;;;;1.53;1.13;;;17.90;99.90;;;;;;5009067;28;20172;-73
2021/09/24 02:09:11;;;;;;;2.30;2.10;;;17.90;99.90;;;;;;5007173;28;20180;-73
2021/09/24 02:11:37;;;;;;;1.60;1.30;;;17.90;99.90;;;;;;4999349;28;20205;-73
2021/09/24 02:14:03;;;;;;;1.83;1.73;;;17.80;99.90;;;;;;5007198;28;20183;-73
2021/09/24 02:16:29;;;;;;;1.77;1.20;;;17.80;99.90;;;;;;5000249;28;20996;-72
2021/09/24 02:18:55;;;;;;;1.27;1.17;;;17.80;99.90;;;;;;5013069;28;20435;-73
2021/09/24 02:21:21;;;;;;;0.80;0.70;;;17.70;99.90;;;;;;5008980;28;20290;-73
2021/09/24 02:23:47;;;;;;;1.10;0.87;;;17.60;99.90;;;;;;5010693;28;20278;-73
2021/09/24 02:26:12;;;;;;;0.70;0.60;;;17.70;99.90;;;;;;5002848;28;20578;-73
2021/09/24 02:28:38;;;;;;;1.07;0.97;;;17.70;99.90;;;;;;5005469;28;20435;-73
2021/09/24 02:31:08;;;;;;;0.70;0.60;;;17.70;99.90;;;;;;5005010;28;20192;-73
2021/09/24 02:33:36;;;;;;;2.10;1.57;;;17.60;99.90;;;;;;5011769;28;20990;-73
2021/09/24 02:36:02;;;;;;;3.33;1.23;;;17.60;99.90;;;;;;5010581;28;20439;-73
2021/09/24 02:38:28;;;;;;;1.60;1.50;;;17.60;99.90;;;;;;5004266;28;20431;-73
2021/09/24 02:40:53;;;;;;;2.60;1.60;;;17.70;99.90;;;;;;4995033;28;20451;-73
2021/09/24 02:43:19;;;;;;;0.80;0.70;;;17.70;99.90;;;;;;5001552;28;20181;-73
2021/09/24 02:45:44;;;;;;;0.80;0.67;;;17.80;99.90;;;;;;5001778;28;20208;-73
2021/09/24 02:48:10;;;;;;;1.20;0.90;;;17.80;99.90;;;;;;5004559;28;20226;-73
2021/09/24 02:50:36;;;;;;;2.53;1.60;;;17.80;99.90;;;;;;4993235;28;20696;-73
2021/09/24 02:53:01;;;;;;;1.40;0.80;;;17.80;99.90;;;;;;5010988;28;20211;-74
2021/09/24 02:55:27;;;;;;;2.50;1.57;;;17.80;99.90;;;;;;5006906;28;20173;-73
2021/09/24 02:57:52;;;;;;;2.03;1.80;;;17.90;99.90;;;;;;5003543;28;20196;-73
2021/09/24 03:00:18;;;;;;;2.80;2.63;;;17.90;99.90;;;;;;4998634;28;20177;-73
2021/09/24 03:02:44;;;;;;;1.87;0.83;;;17.90;99.90;;;;;;5009560;28;20204;-73
2021/09/24 03:05:10;;;;;;;1.10;0.90;;;17.80;99.90;;;;;;4995331;28;20917;-73
2021/09/24 03:07:35;;;;;;;3.73;3.43;;;17.80;99.90;;;;;;4994105;28;20180;-73
2021/09/24 03:10:01;;;;;;;1.53;1.43;;;17.70;99.90;;;;;;5010118;28;20427;-73
2021/09/24 03:12:26;;;;;;;4.50;2.20;;;17.70;99.90;;;;;;5011907;28;20621;-73
2021/09/24 03:14:52;;;;;;;1.67;1.10;;;17.60;99.90;;;;;;5005821;28;20266;-74
2021/09/24 03:17:17;;;;;;;2.70;2.50;;;17.70;99.90;;;;;;5012105;28;20545;-73
2021/09/24 03:19:43;;;;;;;2.80;2.60;;;17.70;99.90;;;;;;4998504;28;20272;-73
2021/09/24 03:22:09;;;;;;;1.63;1.53;;;17.60;99.90;;;;;;5005379;28;20561;-74
2021/09/24 03:24:35;;;;;;;0.90;0.80;;;17.60;99.90;;;;;;4995840;28;20177;-74
2021/09/24 03:27:00;;;;;;;0.87;0.83;;;17.60;99.90;;;;;;5004260;28;20862;-73
2021/09/24 03:29:26;;;;;;;2.73;2.53;;;17.60;99.90;;;;;;5009009;28;20657;-73
2021/09/24 03:31:52;;;;;;;6.43;1.93;;;17.60;99.90;;;;;;4996725;28;20197;-73
2021/09/24 03:34:17;;;;;;;4.13;1.70;;;17.60;99.90;;;;;;5009244;28;20168;-73
2021/09/24 03:36:43;;;;;;;3.93;2.00;;;17.60;99.90;;;;;;5026033;28;20176;-73
2021/09/24 03:39:11;;;;;;;5.13;1.80;;;17.60;99.90;;;;;;5012608;28;20545;-73
2021/09/24 03:41:38;;;;;;;1.67;1.20;;;17.50;99.90;;;;;;5012920;28;20189;-73
2021/09/24 03:44:04;;;;;;;1.33;1.07;;;17.50;99.90;;;;;;5004557;28;20419;-73
2021/09/24 03:46:30;;;;;;;4.20;1.77;;;17.50;99.90;;;;;;4999939;28;20455;-73
2021/09/24 03:48:56;;;;;;;2.20;1.80;;;17.50;99.90;;;;;;5012907;28;20453;-73
2021/09/24 03:51:21;;;;;;;1.73;1.60;;;17.40;99.90;;;;;;5009518;28;20192;-73
2021/09/24 03:53:47;;;;;;;3.33;3.03;;;17.40;99.90;;;;;;4993991;28;20732;-73
2021/09/24 03:56:12;;;;;;;3.57;3.23;;;17.40;99.90;;;;;;5005358;28;20198;-73
2021/09/24 03:58:38;;;;;;;1.93;1.63;;;17.30;99.90;;;;;;5008765;28;20196;-74
2021/09/24 04:01:03;;;;;;;2.97;2.67;;;17.30;99.90;;;;;;5008164;28;20204;-73
2021/09/24 04:03:29;;;;;;;1.27;0.83;;;17.10;99.90;;;;;;5007450;28;20692;-74
2021/09/24 04:05:55;;;;;;;2.10;1.90;;;17.20;99.90;;;;;;5001957;28;20242;-74
2021/09/24 04:08:20;;;;;;;2.00;1.00;;;17.20;99.90;;;;;;5011785;28;20566;-74
2021/09/24 04:10:46;;;;;;;5.87;4.30;;;17.20;99.90;;;;;;5007599;28;20584;-73
2021/09/24 04:13:12;;;;;;;7.40;2.40;;;17.20;99.90;;;;;;5010116;28;20200;-74
2021/09/24 04:15:37;;;;;;;3.50;2.80;;;17.30;99.90;;;;;;5011070;28;20176;-74
2021/09/24 04:18:03;;;;;;;2.60;2.30;;;17.20;99.90;;;;;;5007155;28;20522;-73
2021/09/24 04:20:29;;;;;;;2.50;2.30;;;17.20;99.90;;;;;;5004276;28;20668;-74
2021/09/24 04:22:54;;;;;;;2.30;2.17;;;17.20;99.90;;;;;;5009362;28;20637;-74
2021/09/24 04:25:20;;;;;;;2.93;2.00;;;17.10;99.90;;;;;;5007602;28;20561;-73
2021/09/24 04:27:46;;;;;;;1.83;1.17;;;17.20;99.90;;;;;;5002833;28;20189;-74
2021/09/24 04:30:11;;;;;;;2.67;2.53;;;17.20;99.90;;;;;;5004871;28;20182;-73
2021/09/24 04:32:37;;;;;;;4.07;1.30;;;17.20;99.90;;;;;;5005918;28;20211;-73
2021/09/24 04:35:04;;;;;;;5.50;2.40;;;17.00;99.90;;;;;;5008912;28;20180;-74
2021/09/24 04:37:30;;;;;;;1.83;1.67;;;17.00;99.90;;;;;;5014796;28;21014;-74
2021/09/24 04:39:55;;;;;;;1.60;1.50;;;17.10;99.90;;;;;;5012566;28;20963;-73
2021/09/24 04:42:21;;;;;;;1.10;0.97;;;17.00;99.90;;;;;;4996640;28;20200;-74
2021/09/24 04:44:47;;;;;;;3.17;2.87;;;17.00;99.90;;;;;;5004123;28;20227;-74
2021/09/24 04:47:12;;;;;;;1.97;1.20;;;16.90;99.90;;;;;;5003410;28;20181;-74
2021/09/24 04:49:38;;;;;;;2.30;1.33;;;16.80;99.90;;;;;;5004387;28;20442;-74
2021/09/24 04:52:04;;;;;;;2.17;1.43;;;16.80;99.90;;;;;;5003435;28;20723;-74
2021/09/24 04:54:29;;;;;;;2.43;2.33;;;16.80;99.90;;;;;;5015076;28;20267;-74
2021/09/24 04:56:55;;;;;;;2.17;1.60;;;16.70;99.90;;;;;;5014960;28;20548;-74
2021/09/24 04:59:20;;;;;;;2.87;2.53;;;16.70;99.90;;;;;;5014709;28;20725;-74
2021/09/24 05:01:46;;;;;;;3.13;2.70;;;16.70;99.90;;;;;;5008557;28;20244;-74
2021/09/24 05:04:12;;;;;;;7.13;1.77;;;16.70;99.90;;;;;;5014928;28;20200;-74
2021/09/24 05:06:37;;;;;;;1.13;1.03;;;16.70;99.90;;;;;;5006098;28;20205;-74
2021/09/24 05:09:03;;;;;;;8.17;4.03;;;16.80;99.90;;;;;;4998615;28;20180;-74
2021/09/24 05:11:28;;;;;;;3.07;2.90;;;16.80;99.90;;;;;;5009170;28;20189;-74
2021/09/24 05:13:54;;;;;;;1.83;1.73;;;16.80;99.90;;;;;;5010730;28;20549;-74
2021/09/24 05:16:19;;;;;;;2.50;2.40;;;16.80;99.90;;;;;;5011840;28;20263;-74
2021/09/24 05:18:45;;;;;;;2.00;1.90;;;16.80;99.90;;;;;;5012481;28;20234;-74
2021/09/24 05:21:11;;;;;;;1.00;0.90;;;16.80;99.90;;;;;;5002600;28;20231;-74
2021/09/24 05:23:37;;;;;;;4.60;2.13;;;16.80;99.90;;;;;;5007709;28;20202;-74
2021/09/24 05:26:03;;;;;;;1.60;1.50;;;16.80;99.90;;;;;;5008888;28;20236;-74
2021/09/24 05:28:29;;;;;;;1.67;1.33;;;16.80;99.90;;;;;;5009917;28;20788;-74
2021/09/24 05:30:54;;;;;;;4.20;1.40;;;16.80;99.90;;;;;;5014216;28;20435;-74
2021/09/24 05:33:20;;;;;;;1.80;1.70;;;16.90;99.90;;;;;;5011626;28;20287;-74
2021/09/24 05:35:45;;;;;;;2.40;1.57;;;16.80;99.90;;;;;;5006078;28;20191;-74
2021/09/24 05:38:11;;;;;;;3.63;1.63;;;16.80;99.90;;;;;;5005599;28;20181;-74
2021/09/24 05:40:37;;;;;;;4.20;2.57;;;16.90;99.90;;;;;;5011216;28;20650;-74
2021/09/24 05:43:02;;;;;;;2.90;1.47;;;16.80;99.90;;;;;;5008475;28;20223;-74
2021/09/24 05:45:28;;;;;;;2.00;1.67;;;16.90;99.90;;;;;;5007550;28;20207;-74
2021/09/24 05:47:53;;;;;;;3.90;2.77;;;16.80;99.90;;;;;;5004080;28;20542;-74
2021/09/24 05:50:19;;;;;;;2.30;1.27;;;16.80;99.90;;;;;;5003093;28;20165;-74
2021/09/24 05:52:47;;;;;;;2.50;1.43;;;16.80;99.90;;;;;;5026400;28;20280;-74
2021/09/24 05:55:14;;;;;;;3.10;2.80;;;16.70;99.90;;;;;;5009218;28;20438;-75
2021/09/24 05:57:40;;;;;;;2.40;2.20;;;16.70;99.90;;;;;;5003939;28;20448;-75
2021/09/24 06:00:09;;;;;;;1.77;1.67;;;16.70;99.90;;;;;;4996679;28;20905;-75
2021/09/24 06:02:34;;;;;;;2.53;2.23;;;16.80;99.90;;;;;;5006492;28;20486;-74
2021/09/24 06:05:00;;;;;;;1.77;1.37;;;16.90;99.90;;;;;;5006614;28;20483;-72
2021/09/24 06:07:26;;;;;;;1.23;1.13;;;16.80;99.90;;;;;;5000389;28;20165;-73
2021/09/24 06:09:52;;;;;;;2.10;2.00;;;16.80;99.90;;;;;;5001736;28;20591;-73
2021/09/24 06:12:18;;;;;;;2.10;2.00;;;16.90;99.90;;;;;;5014591;28;20470;-73
2021/09/24 06:14:44;;;;;;;2.33;2.23;;;16.90;99.90;;;;;;5012932;28;20186;-73
2021/09/24 06:17:11;;;;;;;2.90;2.70;;;16.90;99.90;;;;;;5013338;28;20180;-73
2021/09/24 06:19:40;;;;;;;1.97;1.60;;;17.00;99.90;;;;;;5004231;28;20515;-73
2021/09/24 06:22:07;;;;;;;8.83;1.57;;;17.00;99.90;;;;;;5012998;28;20500;-73
2021/09/24 06:24:32;;;;;;;4.50;3.80;;;17.00;99.90;;;;;;5010154;28;20861;-73
2021/09/24 06:26:58;;;;;;;1.87;1.40;;;16.90;99.90;;;;;;5010282;28;20514;-73
2021/09/24 06:29:24;;;;;;;4.87;1.90;;;16.90;99.90;;;;;;5001124;28;20519;-73
2021/09/24 06:31:50;;;;;;;2.03;1.20;;;17.10;99.90;;;;;;5004857;28;20247;-73
2021/09/24 06:34:16;;;;;;;1.83;1.53;;;17.20;99.90;;;;;;4996030;28;20173;-73
2021/09/24 06:36:41;;;;;;;1.90;1.77;;;17.10;99.90;;;;;;4998826;28;20443;-73
2021/09/24 06:39:07;;;;;;;3.07;2.10;;;17.20;99.90;;;;;;5008295;28;20184;-73
2021/09/24 06:41:32;;;;;;;1.57;1.43;;;17.30;99.90;;;;;;5013526;28;20200;-74
2021/09/24 06:43:58;;;;;;;1.53;1.43;;;17.20;99.90;;;;;;4997549;28;20195;-73
2021/09/24 06:46:24;;;;;;;4.17;3.10;;;17.30;99.90;;;;;;5010599;28;20257;-73
2021/09/24 06:48:49;;;;;;;5.13;1.57;;;17.30;99.90;;;;;;5013208;28;20180;-75
2021/09/24 06:51:15;;;;;;;4.40;2.83;;;17.30;99.90;;;;;;5009906;28;20193;-73
2021/09/24 06:53:41;;;;;;;3.53;2.10;;;17.30;99.90;;;;;;5006716;28;20626;-73
2021/09/24 06:56:06;;;;;;;2.87;2.40;;;17.50;99.90;;;;;;5013199;28;20259;-73
2021/09/24 06:58:32;;;;;;;3.00;2.27;;;17.60;99.90;;;;;;5010137;28;20582;-73
2021/09/24 07:00:59;;;;;;;1.87;1.60;;;17.60;99.90;;;;;;5009428;28;20199;-73
2021/09/24 07:03:24;;;;;;;3.00;2.70;;;17.50;99.90;;;;;;5011358;28;20208;-73
2021/09/24 07:05:50;;;;;;;4.80;3.70;;;17.40;99.90;;;;;;5004111;28;20557;-73
2021/09/24 07:08:16;;;;;;;2.10;1.63;;;17.50;99.90;;;;;;5012322;28;20275;-73
2021/09/24 07:10:42;;;;;;;3.43;1.67;;;17.60;99.90;;;;;;5011730;28;20242;-73
2021/09/24 07:13:08;;;;;;;2.33;1.63;;;17.60;99.90;;;;;;5013431;28;20200;-73
2021/09/24 07:15:33;;;;;;;1.80;1.70;;;17.60;99.90;;;;;;4997891;28;20498;-73
2021/09/24 07:17:59;;;;;;;3.47;3.17;;;17.70;99.90;;;;;;5009994;28;20222;-73
2021/09/24 07:20:24;;;;;;;3.33;1.63;;;17.70;99.90;;;;;;5011373;28;20196;-73
2021/09/24 07:22:50;;;;;;;2.47;2.20;;;17.70;99.90;;;;;;5010567;28;20211;-73
2021/09/24 07:25:16;;;;;;;4.50;1.20;;;17.70;99.90;;;;;;4996408;28;20211;-73
2021/09/24 07:27:42;;;;;;;2.00;1.33;;;17.80;99.90;;;;;;5010848;28;20172;-74
2021/09/24 07:30:08;;;;;;;1.73;1.43;;;17.90;99.90;;;;;;5003638;28;20431;-73
2021/09/24 07:32:36;;;;;;;3.20;1.67;;;17.90;99.90;;;;;;4996473;28;20531;-73
2021/09/24 07:35:02;;;;;;;1.53;1.37;;;18.00;99.90;;;;;;5004034;28;20446;-73
2021/09/24 07:37:28;;;;;;;3.80;1.07;;;18.10;99.90;;;;;;5008775;28;20435;-74
2021/09/24 07:39:54;;;;;;;3.03;1.73;;;18.20;99.90;;;;;;5010147;28;20439;-73
2021/09/24 07:42:19;;;;;;;9.17;3.67;;;18.40;99.90;;;;;;5007413;28;20204;-73
2021/09/24 07:44:45;;;;;;;2.63;1.43;;;18.50;99.90;;;;;;5008758;28;20596;-73
2021/09/24 07:47:11;;;;;;;3.23;1.40;;;18.60;99.90;;;;;;5000641;28;20184;-74
2021/09/24 07:49:36;;;;;;;6.10;2.10;;;18.60;99.90;;;;;;5003603;28;20306;-73
2021/09/24 07:52:02;;;;;;;1.43;1.33;;;18.60;99.90;;;;;;5004294;28;20537;-73
2021/09/24 07:54:28;;;;;;;1.50;0.93;;;18.60;99.90;;;;;;5008233;28;20262;-73
2021/09/24 07:56:54;;;;;;;2.77;2.23;;;18.60;99.90;;;;;;5005997;28;20503;-73
2021/09/24 07:59:21;;;;;;;1.77;1.20;;;18.60;99.90;;;;;;5012098;28;20180;-73
2021/09/24 08:01:47;;;;;;;2.70;2.37;;;18.50;99.90;;;;;;5005967;28;20272;-73
2021/09/24 08:04:13;;;;;;;2.50;1.27;;;18.40;99.90;;;;;;5011406;28;20431;-73
2021/09/24 08:06:38;;;;;;;1.83;1.50;;;18.40;99.90;;;;;;5002784;28;20458;-74
2021/09/24 08:09:04;;;;;;;2.60;2.27;;;18.30;99.90;;;;;;5000578;28;20215;-74
2021/09/24 08:11:31;;;;;;;2.00;1.67;;;18.30;99.90;;;;;;4992060;28;20188;-76
2021/09/24 08:13:56;;;;;;;1.33;1.10;;;18.30;99.90;;;;;;5000260;28;20431;-74
2021/09/24 08:16:22;;;;;;;3.47;2.17;;;18.40;99.90;;;;;;5009292;28;20939;-75
2021/09/24 08:18:48;;;;;;;1.10;0.97;;;18.50;99.90;;;;;;5007103;28;20176;-74
2021/09/24 08:21:14;;;;;;;1.50;1.00;;;18.40;99.90;;;;;;5008634;28;20299;-77
2021/09/24 08:23:41;;;;;;;2.13;1.93;;;18.50;99.90;;;;;;5006700;28;20513;-76
2021/09/24 08:26:10;;;;;;;1.57;1.47;;;18.60;99.90;;;;;;5003599;28;20203;-74
2021/09/24 08:28:36;;;;;;;2.30;1.00;;;18.60;99.90;;;;;;5009137;28;20839;-74
2021/09/24 08:31:02;;;;;;;1.77;1.50;;;18.60;99.90;;;;;;5003510;28;20547;-74
2021/09/24 08:33:28;;;;;;;0.90;0.80;;;18.70;99.90;;;;;;5008138;28;20692;-75
2021/09/24 08:35:53;;;;;;;1.10;1.00;;;18.80;99.90;;;;;;5008105;28;20426;-75
2021/09/24 08:38:19;;;;;;;3.90;2.67;;;18.90;99.90;;;;;;5012469;28;20251;-74
2021/09/24 08:40:45;;;;;;;4.23;1.03;;;18.90;99.90;;;;;;5000383;28;20246;-74
2021/09/24 08:43:12;;;;;;;1.30;1.20;;;19.00;99.90;;;;;;5002972;28;20188;-75
2021/09/24 08:45:38;;;;;;;1.93;1.57;;;19.10;99.90;;;;;;5011328;28;20196;-74
2021/09/24 08:48:06;;;;;;;1.20;0.83;;;19.10;99.90;;;;;;5006590;28;20445;-75
2021/09/24 08:50:37;;;;;;;1.00;0.80;;;19.20;99.90;;;;;;5003635;28;20264;-75
2021/09/24 08:53:04;;;;;;;2.73;1.67;;;19.30;99.90;;;;;;5002922;28;20844;-73
2021/09/24 08:55:30;;;;;;;1.40;1.10;;;19.50;99.90;;;;;;5009940;28;20474;-74
2021/09/24 08:57:56;;;;;;;2.67;1.73;;;19.50;99.90;;;;;;5011041;28;20490;-75
2021/09/24 09:00:22;;;;;;;2.20;1.70;;;19.70;99.90;;;;;;5012358;28;20215;-74
2021/09/24 09:02:59;;;;;;;2.07;1.87;;;19.90;99.90;;;;;;5010123;28;20466;-74
2021/09/24 09:05:32;;;;;;;4.03;1.90;;;20.10;99.90;;;;;;5010688;28;20455;-74
2021/09/24 09:08:27;;;;;;;1.93;1.27;;;20.50;99.90;;;;;;4995423;28;20523;-74
2021/09/24 09:11:19;;;;;;;1.70;0.93;;;20.70;99.90;;;;;;5005685;28;20924;-74
2021/09/24 09:13:50;;;;;;;1.63;1.53;;;21.20;99.90;;;;;;5001401;28;20433;-74
2021/09/24 09:16:24;;;;;;;2.90;1.40;;;22.00;99.90;;;;;;5006157;28;20489;-75
2021/09/24 09:19:02;;;;;;;2.07;1.47;;;22.80;99.90;;;;;;4999778;28;20514;-75
2021/09/24 09:21:28;;;;;;;1.37;1.03;;;23.60;99.90;;;;;;4994103;28;20447;-75
2021/09/24 09:23:55;;;;;;;1.47;1.37;;;24.20;99.90;;;;;;5012726;28;20429;-76
2021/09/24 09:26:21;;;;;;;1.20;1.00;;;25.00;99.90;;;;;;5014532;28;20192;-75
2021/09/24 09:28:56;;;;;;;3.17;1.53;;;25.40;99.90;;;;;;5013607;28;20419;-76
2021/09/24 09:31:33;;;;;;;2.10;1.10;;;24.90;99.90;;;;;;5003877;28;21219;-75
2021/09/24 09:34:11;;;;;;;1.90;1.50;;;25.50;99.90;;;;;;5014379;28;20418;-75
2021/09/24 09:36:41;;;;;;;2.37;1.53;;;25.90;99.90;;;;;;5013415;28;20469;-75
2021/09/24 09:39:12;;;;;;;2.23;1.23;;;26.30;99.90;;;;;;5007011;28;20457;-76
2021/09/24 09:41:53;;;;;;;3.00;1.13;;;26.70;99.90;;;;;;5000723;28;20475;-76
2021/09/24 09:44:31;;;;;;;2.43;1.67;;;26.90;99.90;;;;;;5014357;28;20419;-76
2021/09/24 09:46:57;;;;;;;1.10;0.80;;;26.90;99.90;;;;;;5005939;28;20463;-76
2021/09/24 09:49:29;;;;;;;1.60;1.50;;;26.70;99.90;;;;;;4995345;28;20922;-76
2021/09/24 09:52:10;;;;;;;5.90;2.73;;;26.30;99.90;;;;;;5000556;28;20448;-75
2021/09/24 09:54:37;;;;;;;1.33;0.80;;;26.30;99.90;;;;;;5011457;28;20422;-76
2021/09/24 09:57:10;;;;;;;1.03;0.93;;;26.80;99.90;;;;;;5013931;28;20470;-76
2021/09/24 09:59:35;;;;;;;2.03;1.50;;;27.30;99.90;;;;;;5014594;28;20486;-76
2021/09/24 10:02:19;;;;;;;1.27;1.00;;;28.00;99.90;;;;;;5013285;28;20526;-76
2021/09/24 10:04:47;;;;;;;0.90;0.70;;;28.40;99.90;;;;;;5007708;28;20215;-78
2021/09/24 10:07:20;;;;;;;1.00;0.87;;;29.00;99.90;;;;;;5004918;28;20458;-76
2021/09/24 10:09:47;;;;;;;3.30;1.93;;;29.70;99.90;;;;;;5002587;28;20446;-76
2021/09/24 10:12:20;;;;;;;1.10;0.80;;;29.70;99.90;;;;;;5013095;28;20478;-76
2021/09/24 10:14:46;;;;;;;1.07;0.93;;;29.00;96.60;;;;;;5005779;28;20925;-76
2021/09/24 10:17:12;;;;;;;1.30;0.80;;;28.00;98.60;;;;;;4994732;28;20420;-76
2021/09/24 10:19:38;;;;;;;1.47;0.90;;;27.60;99.90;;;;;;5003071;28;20423;-76
2021/09/24 10:22:03;;;;;;;1.00;0.80;;;27.00;99.90;;;;;;5012253;28;20443;-75
2021/09/24 10:24:29;;;;;;;2.60;1.30;;;26.40;99.90;;;;;;4996166;28;20181;-76
2021/09/24 10:27:01;;;;;;;1.63;1.37;;;26.00;99.90;;;;;;4995871;28;20211;-75
2021/09/24 10:29:32;;;;;;;1.07;0.97;;;25.70;99.90;;;;;;4996784;28;20177;-75
2021/09/24 10:32:24;;;;;;;1.10;0.97;;;25.70;99.90;;;;;;5013274;28;20431;-75
2021/09/24 10:35:03;;;;;;;1.67;1.57;;;25.40;99.90;;;;;;5002586;28;20474;-75
2021/09/24 10:37:31;;;;;;;1.57;1.47;;;25.20;99.90;;;;;;5009688;28;20419;-76
2021/09/24 10:40:00;;;;;;;1.23;0.97;;;24.70;99.90;;;;;;5013850;28;20493;-75
2021/09/24 10:42:34;;;;;;;0.80;0.70;;;25.10;99.90;;;;;;5008647;28;20530;-75
2021/09/24 10:45:03;;;;;;;1.83;1.67;;;25.90;99.90;;;;;;5013780;28;20446;-75
2021/09/24 10:47:53;;;;;;;0.80;0.63;;;26.90;99.90;;;;;;5015085;28;20430;-76
2021/09/24 10:50:34;;;;;;;1.27;1.13;;;27.40;99.90;;;;;;4998037;28;20447;-76
2021/09/24 10:53:22;;;;;;;3.60;1.70;;;27.60;99.90;;;;;;5011824;28;20866;-76
2021/09/24 10:55:54;;;;;;;3.00;2.50;;;27.90;99.90;;;;;;5006712;28;20507;-75
2021/09/24 10:58:31;;;;;;;5.90;4.50;;;28.30;99.90;;;;;;4994433;28;20436;-76
2021/09/24 11:01:27;;;;;;;3.53;1.67;;;28.00;99.90;;;;;;5007605;28;20426;-75
2021/09/24 11:03:58;;;;;;;1.80;1.13;;;28.00;99.90;;;;;;4997133;28;20435;-76
2021/09/24 11:06:43;;;;;;;2.50;2.20;;;27.50;99.90;;;;;;4994483;28;20448;-76
2021/09/24 11:09:12;;;;;;;1.07;0.90;;;26.90;99.90;;;;;;5004776;28;20419;-76
2021/09/24 11:11:40;;;;;;;3.70;1.63;;;26.80;99.90;;;;;;5013149;28;20522;-75
2021/09/24 11:14:20;;;;;;;1.03;0.80;;;26.40;99.90;;;;;;5029583;28;20999;-75
2021/09/24 11:16:48;;;;;;;1.53;1.00;;;26.20;99.90;;;;;;5004113;28;20419;-76
2021/09/24 11:19:33;;;;;;;1.30;0.73;;;26.00;99.90;;;;;;5004523;28;20455;-76
2021/09/24 11:21:59;;;;;;;9.93;7.30;;;25.70;99.90;;;;;;5002690;28;20454;-77
2021/09/24 11:24:29;;;;;;;1.70;1.60;;;26.10;99.90;;;;;;5010676;28;20945;-76
2021/09/24 11:26:57;;;;;;;1.60;1.50;;;26.60;99.90;;;;;;5015458;28;20235;-77
2021/09/24 11:29:27;;;;;;;1.53;0.80;;;26.70;99.90;;;;;;5000933;28;20458;-76
2021/09/24 11:31:52;;;;;;;1.30;1.20;;;26.80;99.90;;;;;;5010491;28;20436;-76
2021/09/24 11:34:40;;;;;;;2.23;1.27;;;26.30;99.90;;;;;;5005880;28;20423;-75
2021/09/24 11:37:19;;;;;;;1.83;1.27;;;26.00;99.90;;;;;;5000843;28;20203;-75
2021/09/24 11:39:53;;;;;;;2.27;1.50;;;25.50;99.90;;;;;;5003437;28;20446;-75
2021/09/24 11:42:18;;;;;;;3.40;2.70;;;25.20;99.90;;;;;;5014607;28;20450;-75
2021/09/24 11:44:47;;;;;;;0.97;0.80;;;25.20;99.90;;;;;;5022517;28;20415;-75
2021/09/24 11:47:27;;;;;;;1.93;0.90;;;25.20;99.90;;;;;;5003482;28;20169;-75
2021/09/24 11:50:05;;;;;;;1.60;0.90;;;25.20;99.90;;;;;;5002093;28;20408;-75
2021/09/24 11:52:36;;;;;;;2.93;1.70;;;25.20;99.90;;;;;;4994131;28;20467;-75
2021/09/24 11:55:15;;;;;;;1.10;1.00;;;25.10;99.90;;;;;;4994905;28;21016;-75
2021/09/24 11:57:53;;;;;;;1.10;0.77;;;24.80;99.90;;;;;;4994325;28;20466;-75
2021/09/24 12:00:19;;;;;;;1.40;1.30;;;24.40;99.90;;;;;;5012242;28;20558;-75
2021/09/24 12:02:45;;;;;;;0.90;0.70;;;24.50;99.90;;;;;;5013154;28;20841;-75
2021/09/24 12:05:10;;;;;;;0.93;0.83;;;25.20;99.90;;;;;;4995614;28;20235;-76
2021/09/24 12:07:36;;;;;;;2.00;1.47;;;26.20;99.90;;;;;;4997613;28;20171;-76
2021/09/24 12:10:04;;;;;;;1.23;0.83;;;27.00;99.90;;;;;;5004066;28;20172;-76
2021/09/24 12:12:30;;;;;;;0.90;0.60;;;27.70;99.90;;;;;;5013443;28;20215;-76
2021/09/24 12:15:01;;;;;;;0.90;0.60;;;28.20;99.90;;;;;;5008217;28;20758;-76
2021/09/24 12:17:29;;;;;;;1.50;1.40;;;28.60;99.90;;;;;;5008900;28;20423;-76
2021/09/24 12:19:56;;;;;;;1.30;1.07;;;29.00;99.90;;;;;;5002676;28;20506;-77
2021/09/24 12:22:21;;;;;;;1.40;0.80;;;28.80;99.90;;;;;;5002357;28;20443;-77
2021/09/24 12:24:47;;;;;;;0.90;0.70;;;28.40;99.90;;;;;;4992650;28;20419;-76
2021/09/24 12:27:35;;;;;;;0.90;0.67;;;28.70;99.90;;;;;;4995173;28;20227;-77
2021/09/24 12:30:15;;;;;;;1.30;1.20;;;29.00;98.80;;;;;;4996361;28;20169;-77
2021/09/24 12:32:42;;;;;;;1.00;0.80;;;29.50;99.40;;;;;;4999015;28;20467;-77
2021/09/24 12:35:08;;;;;;;1.33;0.90;;;29.80;95.60;;;;;;5016061;28;20451;-77
2021/09/24 12:37:41;;;;;;;1.10;0.90;;;30.00;95.40;;;;;;5014084;28;20425;-77
2021/09/24 12:40:11;;;;;;;1.10;0.80;;;30.00;94.00;;;;;;4995700;28;20786;-76
2021/09/24 12:42:43;;;;;;;1.10;1.00;;;30.10;95.20;;;;;;4996322;28;20431;-77
2021/09/24 12:45:19;;;;;;;0.90;0.70;;;30.80;94.50;;;;;;4994266;28;20444;-77
2021/09/24 12:47:45;;;;;;;1.10;1.00;;;31.00;93.70;;;;;;4992535;28;20431;-77
2021/09/24 12:50:10;;;;;;;1.20;1.10;;;31.00;91.20;;;;;;5010170;28;20419;-77